Flight Track Log - Related Links

Times and Time Zones

All times are in EDT time to prevent confusion due to time zone crossing. See the N150SB flight status page for this flight to view local times or setup timezone preferences in your user account.

Time Position Orientation Groundspeed Altitude Reporting Facility
EDT Latitude Longitude Course Direction KTS MPH feet Rate Location/Type
Fri 05:24:26 PM 39.6328 -119.7889 10° North 248 285 8,600  Level Oakland Center
Fri 05:25:27 PM 39.6619 -119.7114 64° Northeast 243 280 11,600 2,488 Climbing Oakland Center
Fri 05:26:29 PM 39.6122 -119.6669 145° Southeast 257 296 13,700 2,274 Climbing Oakland Center
Fri 05:27:31 PM 39.5444 -119.6347 160° South 282 325 16,300 2,565 Climbing Oakland Center
Fri 05:28:33 PM 39.4900 -119.5622 134° Southeast 281 323 19,000 2,098 Climbing Oakland Center
Fri 05:29:00 PM 38.1267 -115.3380 101° East  Level FlightAware Approximate
Fri 05:29:34 PM 39.4331 -119.4889 135° Southeast 285 328 20,600  Level Oakland Center
Fri 05:30:36 PM 39.3706 -119.3925 130° Southeast 357 411 21,300 1,984 Climbing Oakland Center
Fri 05:31:38 PM 39.2997 -119.2667 126° Southeast 364 419 24,700 2,976 Climbing Oakland Center
Fri 05:32:39 PM 39.2425 -119.1725 128° Southeast 341 392 27,400 1,951 Climbing Oakland Center
Fri 05:33:41 PM 39.1897 -119.0797 126° Southeast 326 375 28,700 823 Climbing Oakland Center
Fri 05:34:43 PM 39.1344 -118.9669 122° Southeast 375 432 29,100 829 Climbing Oakland Center
Fri 05:35:44 PM 39.1125 -118.8275 101° East 401 461 30,400 1,561 Climbing Oakland Center
Fri 05:36:46 PM 39.0831 -118.6625 103° East 401 461 32,300 1,839 Climbing Oakland Center
Fri 05:37:48 PM 39.0603 -118.5297 102° East 388 447 34,200 1,452 Climbing Oakland Center
Fri 05:38:50 PM 39.0386 -118.4022 102° East 372 428 35,300 683 Climbing Oakland Center
Fri 05:39:51 PM 38.9867 -118.2792 118° Southeast 390 449 35,600 537 Climbing Oakland Center
Fri 05:40:53 PM 38.9292 -118.1544 121° Southeast 403 464 36,400 871 Climbing Oakland Center
Fri 05:41:55 PM 38.8836 -118.0231 114° Southeast 404 465 37,400 1,024 Climbing Oakland Center
Fri 05:42:56 PM 38.8392 -117.8600 109° East 406 467 38,500 780 Climbing Oakland Center
Fri 05:43:58 PM 38.8106 -117.7317 106° East 405 466 39,000 290 Climbing Oakland Center
Fri 05:45:00 PM 38.7875 -117.5853 101° East 414 476 39,100  Climbing Oakland Center
Fri 05:46:02 PM 38.7636 -117.4308 101° East 435 501 39,000 -49 Descending Oakland Center
Fri 05:47:03 PM 38.7392 -117.2706 101° East 451 519 39,000  Level Oakland Center
Fri 05:48:05 PM 38.7142 -117.1094 101° East 452 520 39,000  Level Oakland Center
Fri 05:49:07 PM 38.6839 -116.9158 101° East 456 525 39,000  Level Oakland Center
Fri 05:50:08 PM 38.6572 -116.7564 102° East 457 526 39,000 98 Level Salt Lake Center
Fri 05:51:10 PM 38.6303 -116.5944 102° East 457 526 39,200 242 Climbing Oakland Center
Fri 05:52:12 PM 38.6036 -116.4339 102° East 458 527 39,500 242 Climbing Oakland Center
Fri 05:53:14 PM 38.5792 -116.2786 101° East 456 525 39,700 242 Climbing Salt Lake Center
Fri 05:54:16 PM 38.5525 -116.1197 102° East 455 524 40,000 290 Climbing Salt Lake Center
Fri 05:55:18 PM 38.5272 -115.9642 102° East 451 519 40,300 242 Climbing Salt Lake Center
Fri 05:56:20 PM 38.5000 -115.8100 103° East 448 516 40,500 288 Climbing Salt Lake Center
Fri 05:57:23 PM 38.4694 -115.6231 102° East 446 513 40,900 288 Climbing Salt Lake Center
Fri 05:58:25 PM 38.4425 -115.4689 103° East 446 513 41,100 97 Climbing Salt Lake Center
Fri 05:59:27 PM 38.4172 -115.3292 103° East 446 513 41,100 -48 Level Salt Lake Center
Fri 06:00:29 PM 38.3850 -115.1411 102° East 449 517 41,000 -48 Descending Salt Lake Center
Fri 06:01:31 PM 38.3578 -114.9836 102° East 452 520 41,000  Level Salt Lake Center
Fri 06:02:33 PM 38.3289 -114.8283 103° East 454 522 41,000  Level Salt Lake Center
Fri 06:03:35 PM 38.3008 -114.6708 103° East 454 522 41,000  Level Salt Lake Center
Fri 06:04:37 PM 38.2722 -114.5136 103° East 454 522 41,000  Level Salt Lake Center
Fri 06:05:39 PM 38.2436 -114.3561 103° East 456 525 41,000  Level Salt Lake Center
Fri 06:06:41 PM 38.2061 -114.1697 104° East 456 525 41,000  Level Salt Lake Center
Fri 06:07:43 PM 38.1742 -114.0144 105° East 456 525 41,000  Level Salt Lake Center
Fri 06:08:45 PM 38.1428 -113.8586 104° East 456 525 41,000  Level Salt Lake Center
Fri 06:09:47 PM 38.1114 -113.7033 104° East 456 525 41,000  Level Salt Lake Center
Fri 06:10:49 PM 38.0800 -113.5472 104° East 456 525 41,000  Level Salt Lake Center
Fri 06:11:51 PM 38.0472 -113.3925 105° East 455 524 41,000  Level Salt Lake Center
Fri 06:12:53 PM 38.0161 -113.2364 104° East 455 524 41,000  Level Salt Lake Center
Fri 06:13:55 PM 37.9756 -113.0492 105° East 456 525 41,000  Level Salt Lake Center
Fri 06:14:57 PM 37.9425 -112.8933 105° East 455 524 41,000  Level Salt Lake Center
Fri 06:15:59 PM 37.9103 -112.7361 105° East 456 525 41,000  Level Salt Lake Center
Fri 06:17:01 PM 37.8767 -112.5794 105° East 456 525 41,000  Level Salt Lake Center
Fri 06:18:03 PM 37.8422 -112.4233 106° East 456 525 41,000  Level Salt Lake Center
Fri 06:19:05 PM 37.8081 -112.2700 106° East 456 525 41,000  Level Salt Lake Center
Fri 06:20:07 PM 37.7744 -112.1164 105° East 455 524 41,000  Level Salt Lake Center
Fri 06:21:09 PM 37.7406 -111.9617 105° East 455 524 41,000  Level Salt Lake Center
Fri 06:22:11 PM 37.6992 -111.7778 106° East 455 524 41,000  Level Salt Lake Center
Fri 06:23:13 PM 37.6647 -111.6247 106° East 454 522 41,000  Level Salt Lake Center
Fri 06:24:15 PM 37.6297 -111.4728 106° East 454 522 41,000  Level Salt Lake Center
Fri 06:25:17 PM 37.5950 -111.3206 106° East 454 522 41,000  Level Salt Lake Center
Fri 06:26:19 PM 37.5603 -111.1669 106° East 454 522 41,000  Level Salt Lake Center
Fri 06:27:21 PM 37.5258 -111.0150 106° East 454 522 41,000  Level Salt Lake Center
Fri 06:28:23 PM 37.4828 -110.8311 106° East 454 522 41,000  Level Salt Lake Center
Fri 06:29:33 PM 37.4486 -110.6794 106° East 454 522 41,000  Level Denver Center
Fri 06:30:35 PM 37.4044 -110.4983 107° East 452 520 41,000  Level Denver Center
Fri 06:31:37 PM 37.3686 -110.3478 107° East 452 520 41,000  Level Denver Center
Fri 06:32:39 PM 37.3328 -110.1964 107° East 452 520 41,000  Level Denver Center
Fri 06:33:41 PM 37.2969 -110.0461 107° East 452 520 41,000  Level Denver Center
Fri 06:34:43 PM 37.2567 -109.8778 107° East 451 519 41,000  Level Denver Center
Fri 06:35:45 PM 37.2206 -109.7336 107° East 451 519 41,000  Level Denver Center
Fri 06:36:47 PM 37.1800 -109.5617 106° East 456 525 41,000  Level Denver Center
Fri 06:37:49 PM 37.1439 -109.4167 107° East 455 524 41,000  Level Denver Center
Fri 06:38:51 PM 37.1014 -109.2458 107° East 457 526 41,000  Level Denver Center
Fri 06:39:53 PM 37.0661 -109.0992 107° East 457 526 41,000  Level Denver Center
Fri 06:40:55 PM 37.0289 -108.9539 108° East 457 526 41,000  Level Denver Center
Fri 06:41:57 PM 36.9864 -108.7839 107° East 458 527 41,000  Level Denver Center
Fri 06:43:00 PM 36.9489 -108.6375 108° East 458 527 41,000  Level Denver Center
Fri 06:44:02 PM 36.9053 -108.4664 108° East 458 527 41,000  Level Denver Center
Fri 06:45:04 PM 36.8683 -108.3206 108° East 458 527 41,000  Level Denver Center
Fri 06:46:06 PM 36.8244 -108.1511 108° East 459 528 41,000  Level Denver Center
Fri 06:47:08 PM 36.7867 -108.0081 108° East 455 524 41,000  Level Denver Center
Fri 06:48:09 PM 36.7417 -107.8397 108° East 455 524 41,000  Level Denver Center
Fri 06:49:11 PM 36.7047 -107.6947 108° East 455 524 41,000  Level Denver Center
Fri 06:50:13 PM 36.6661 -107.5514 109° East 456 525 41,000  Level Denver Center
Fri 06:51:15 PM 36.6214 -107.3842 108° East 456 525 41,000  Level Denver Center
Fri 06:52:17 PM 36.5828 -107.2408 109° East 456 525 41,000  Level Denver Center
Fri 06:53:19 PM 36.5378 -107.0733 108° East 456 525 41,000  Level Denver Center
Fri 06:54:21 PM 36.5000 -106.9300 108° East 456 525 41,000  Level Denver Center
Fri 06:55:23 PM 36.4531 -106.7625 109° East 456 525 41,000  Level Denver Center
Fri 06:56:25 PM 36.4139 -106.6197 109° East 456 525 41,000  Level Denver Center
Fri 06:57:27 PM 36.3764 -106.4825 109° East 457 526 41,000  Level Denver Center
Fri 06:58:42 PM 36.3181 -106.2750 109° East 458 527 41,000  Level Albuquerque Center
Fri 06:59:43 PM 36.2769 -106.1214 108° East 461 531 41,000  Level Albuquerque Center
Fri 07:00:45 PM 36.2339 -105.9678 109° East 465 535 41,000  Level Albuquerque Center
Fri 07:01:47 PM 36.1914 -105.8158 109° East 465 535 41,000  Level Albuquerque Center
Fri 07:02:48 PM 36.1481 -105.6647 110° East 465 535 41,000  Level Albuquerque Center
Fri 07:03:50 PM 36.1033 -105.5078 109° East 465 535 41,000  Level Albuquerque Center
Fri 07:04:51 PM 36.0633 -105.3578 108° East 460 529 41,000  Level Albuquerque Center
Fri 07:05:53 PM 36.0386 -105.1986 101° East 462 532 41,000  Level Albuquerque Center
Fri 07:06:55 PM 36.0161 -105.0403 100° East 463 533 41,000  Level Albuquerque Center
Fri 07:08:00 PM 35.9698 -104.8951 111° Southeast  Level FlightAware Approximate
Fri 07:08:58 PM 35.9672 -104.6992 111° Southeast 462 532 41,000  Level Albuquerque Center
Fri 07:09:59 PM 35.9478 -104.5408 99° East 462 532 41,000  Level Albuquerque Center
Fri 07:11:01 PM 35.9258 -104.3806 100° East 462 532 41,000  Level Albuquerque Center
Fri 07:12:03 PM 35.8781 -104.2292 111° Southeast 467 537 41,000  Level Albuquerque Center
Fri 07:13:04 PM 35.8294 -104.0778 112° Southeast 467 537 41,000  Level Albuquerque Center
Fri 07:14:06 PM 35.7794 -103.9250 112° Southeast 468 539 41,000  Level Albuquerque Center
Fri 07:15:07 PM 35.7317 -103.7728 111° Southeast 469 540 41,000  Level Albuquerque Center
Fri 07:16:09 PM 35.6819 -103.6222 112° Southeast 469 540 41,000  Level Albuquerque Center
Fri 07:17:11 PM 35.6319 -103.4703 112° Southeast 469 540 41,000  Level Albuquerque Center
Fri 07:18:12 PM 35.5825 -103.3189 112° Southeast 469 540 41,000  Level Albuquerque Center
Fri 07:19:14 PM 35.5333 -103.1678 112° Southeast 470 541 41,000  Level Albuquerque Center
Fri 07:20:16 PM 35.4825 -103.0181 113° Southeast 470 541 41,000  Level Albuquerque Center
Fri 07:21:17 PM 35.4322 -102.8675 112° Southeast 470 541 41,000  Level Albuquerque Center
Fri 07:22:19 PM 35.3722 -102.6922 113° Southeast 471 542 41,000  Level Albuquerque Center
Fri 07:23:20 PM 35.3289 -102.5681 113° Southeast 472 543 41,000  Level Albuquerque Center
Fri 07:24:22 PM 35.2683 -102.3897 113° Southeast 472 543 41,000  Level Albuquerque Center
Fri 07:25:24 PM 35.2172 -102.2428 113° Southeast 472 543 41,000  Level Albuquerque Center
Fri 07:26:25 PM 35.1661 -102.0961 113° Southeast 472 543 41,000  Level Albuquerque Center
Fri 07:27:27 PM 35.1147 -101.9431 112° Southeast 472 543 41,000  Level Albuquerque Center
Fri 07:28:28 PM 35.0647 -101.7950 112° Southeast 472 543 41,000  Level Albuquerque Center
Fri 07:29:30 PM 35.0144 -101.6483 113° Southeast 467 537 41,000  Level Albuquerque Center
Fri 07:30:32 PM 34.9550 -101.4861 114° Southeast 472 543 41,000  Level Albuquerque Center
Fri 07:31:33 PM 34.9042 -101.3403 113° Southeast 476 548 41,000  Level Albuquerque Center
Fri 07:32:35 PM 34.8536 -101.1961 113° Southeast 472 543 41,000  Level Albuquerque Center
Fri 07:33:36 PM 34.8031 -101.0517 113° Southeast 470 541 41,000  Level Albuquerque Center
Fri 07:34:38 PM 34.7514 -100.9067 113° Southeast 470 541 41,000  Level Albuquerque Center
Fri 07:35:39 PM 34.7003 -100.7631 113° Southeast 469 540 41,000  Level Albuquerque Center
Fri 07:36:41 PM 34.6372 -100.5889 114° Southeast 469 540 41,000  Level Albuquerque Center
Fri 07:37:42 PM 34.5853 -100.4447 114° Southeast 469 540 41,000  Level Albuquerque Center
Fri 07:38:44 PM 34.5322 -100.2997 114° Southeast 469 540 41,000  Level Albuquerque Center
Fri 07:39:46 PM 34.4786 -100.1561 114° Southeast 469 540 41,000  Level Albuquerque Center
Fri 07:40:47 PM 34.4289 -100.0192 114° Southeast 469 540 41,000  Level Albuquerque Center
Fri 07:41:49 PM 34.3647 -99.8456 114° Southeast 469 540 41,000  Level Albuquerque Center
Fri 07:42:50 PM 34.3111 -99.7006 114° Southeast 470 541 41,000 -157 Level Albuquerque Center
Fri 07:44:22 PM 34.2350 -99.4953 114° Southeast 473 544 40,600 -351 Descending Fort Worth Center
Fri 07:45:24 PM 34.1800 -99.3514 115° Southeast 469 540 40,100 -774 Descending Fort Worth Center
Fri 07:46:26 PM 34.1231 -99.2022 115° Southeast 481 554 39,000 -1,935 Descending Fort Worth Center
Fri 07:47:28 PM 34.0553 -99.0189 114° Southeast 500 575 36,100 -2,661 Descending Fort Worth Center
Fri 07:48:30 PM 33.9958 -98.8667 115° Southeast 503 579 33,500 -2,468 Descending Fort Worth Center
Fri 07:49:32 PM 33.9361 -98.7108 115° Southeast 510 587 31,000 -2,496 Descending Fort Worth Center
Fri 07:50:35 PM 33.8775 -98.5558 114° Southeast 511 588 28,300 -2,784 Descending Fort Worth Center
Fri 07:51:37 PM 33.8344 -98.4067 109° East 484 557 25,200 -3,145 Descending Fort Worth Center
Fri 07:52:39 PM 33.8197 -98.2344 96° East 454 522 21,800 -2,758 Descending Fort Worth Center
Fri 07:53:41 PM 33.7842 -98.0925 107° East 431 496 19,500 -2,371 Descending Fort Worth Center
Fri 07:54:43 PM 33.7142 -97.9678 124° Southeast 430 495 16,900 -2,516 Descending Fort Worth Center
Fri 07:55:45 PM 33.6483 -97.8431 122° Southeast 424 488 14,300 -2,544 Descending Fort Worth Center
Fri 07:56:48 PM 33.5847 -97.7219 122° Southeast 415 478 11,600 -1,968 Descending Fort Worth Center
Fri 07:57:50 PM 33.5247 -97.6092 123° Southeast 392 451 10,200 -823 Descending Fort Worth Center
Fri 07:58:52 PM 33.4681 -97.5017 122° Southeast 385 443 9,900 -387 Descending Fort Worth Center
Fri 07:59:54 PM 33.4056 -97.4214 133° Southeast 299 344 9,400 -726 Descending Fort Worth Center
Fri 08:00:56 PM 33.3661 -97.3408 120° Southeast 296 341 8,400 -1,016 Descending Fort Worth Center
Fri 08:01:58 PM 33.3572 -97.2353 96° East 296 341 7,300 -1,008 Descending Fort Worth Center
Fri 08:03:01 PM 33.3503 -97.1408 95° East 290 334 6,300 -1,008 Descending Fort Worth Center
Fri 08:04:03 PM 33.3033 -97.0631 126° Southeast 282 325 5,200 -1,016 Descending Fort Worth Center
Fri 08:05:05 PM 33.2483 -97.0011 137° Southeast 276 318 4,200 -581 Descending Fort Worth Center
Fri 08:06:07 PM 33.1956 -96.9378 135° Southeast 273 314 4,000 -97 Descending Fort Worth Center
Fri 08:07:09 PM 33.1383 -96.8683 135° Southeast 270 311 4,000  Level Fort Worth Center
Fri 08:08:11 PM 33.0817 -96.7997 135° Southeast 272 313 4,000  Level Fort Worth Center
Fri 08:09:14 PM 33.0286 -96.7364 135° Southeast 272 313 4,000  Level Fort Worth Center
Fri 08:10:16 PM 32.9703 -96.6789 140° Southeast 248 285 4,000  Level Fort Worth Center
Fri 08:11:18 PM 32.9142 -96.6461 154° Southeast 232 267 4,000 -242 Level Fort Worth Center
Fri 08:12:20 PM 32.8475 -96.6358 173° South 230 265 3,500 -726 Descending Fort Worth Center
Fri 08:13:22 PM 32.8058 -96.6761 219° Southwest 219 252 2,500 -532 Descending Fort Worth Center
Fri 08:14:24 PM 32.8008 -96.7539 266° West 218 251 2,400 -484 Descending Fort Worth Center
Fri 08:15:26 PM 32.8067 -96.8094 277° West 168 193 1,500 -912 Descending Fort Worth Center
Fri 08:16:29 PM 32.8300 -96.8386 314° West 137 158 500 -952 Descending Fort Worth Center

Login

Don't have an account? Register now (free) for customized features, flight alerts, and more!